createdAt,value
2016-08-14T00:00:48.761Z,996.83
2016-08-14T00:01:48.765Z,996.8
2016-08-14T00:02:48.766Z,996.82
2016-08-14T00:03:48.767Z,996.8
2016-08-14T00:04:48.773Z,996.79
2016-08-14T00:05:48.773Z,996.8
2016-08-14T00:06:48.781Z,996.8
2016-08-14T00:07:48.785Z,996.74
2016-08-14T00:08:48.785Z,996.76
2016-08-14T00:09:48.786Z,996.8
2016-08-14T00:10:48.784Z,996.75
2016-08-14T00:11:48.783Z,996.76
2016-08-14T00:12:48.788Z,996.81
2016-08-14T00:13:48.791Z,996.79
2016-08-14T00:14:48.790Z,996.8
2016-08-14T00:15:48.793Z,996.81
2016-08-14T00:16:48.795Z,996.81
2016-08-14T00:17:48.797Z,996.81
2016-08-14T00:18:48.804Z,996.82
2016-08-14T00:19:48.801Z,996.8
2016-08-14T00:20:48.805Z,996.81
2016-08-14T00:21:48.804Z,996.81
2016-08-14T00:22:48.808Z,996.81
2016-08-14T00:23:48.809Z,996.82
2016-08-14T00:24:48.811Z,996.81
2016-08-14T00:25:48.813Z,996.81
2016-08-14T00:26:48.828Z,996.75
2016-08-14T00:27:48.817Z,996.78
2016-08-14T00:28:48.820Z,996.77
2016-08-14T00:29:49.054Z,996.75
2016-08-14T00:30:49.303Z,996.75
2016-08-14T00:31:49.477Z,996.75
2016-08-14T00:32:49.414Z,996.76
2016-08-14T00:33:48.921Z,996.73
2016-08-14T00:34:49.191Z,996.69
2016-08-14T00:35:49.324Z,996.72
2016-08-14T00:36:49.221Z,996.72
2016-08-14T00:37:49.409Z,996.68
2016-08-14T00:38:49.359Z,996.66
2016-08-14T00:39:49.348Z,996.64
2016-08-14T00:40:49.436Z,996.66
2016-08-14T00:41:49.250Z,996.65
2016-08-14T00:42:49.395Z,996.64
2016-08-14T00:43:49.344Z,996.65
2016-08-14T00:44:49.470Z,996.68
2016-08-14T00:45:49.399Z,996.64
2016-08-14T00:46:49.397Z,996.64
2016-08-14T00:47:48.862Z,996.66
2016-08-14T00:48:49.453Z,996.65
2016-08-14T00:49:49.468Z,996.67
2016-08-14T00:50:48.865Z,996.64
2016-08-14T00:51:48.869Z,996.68
2016-08-14T00:52:48.931Z,996.7
2016-08-14T00:53:48.872Z,996.64
2016-08-14T00:54:49.346Z,996.64
2016-08-14T00:55:49.335Z,996.63
2016-08-14T00:56:49.506Z,996.61
2016-08-14T00:57:49.433Z,996.63
2016-08-14T00:58:49.049Z,996.67
2016-08-14T00:59:49.284Z,996.62
2016-08-14T01:00:49.269Z,996.62
2016-08-14T01:01:49.533Z,996.63
2016-08-14T01:02:49.445Z,996.63
2016-08-14T01:03:49.111Z,996.64
2016-08-14T01:04:49.198Z,996.63
2016-08-14T01:05:49.551Z,996.63
2016-08-14T01:06:49.155Z,996.64
2016-08-14T01:07:48.898Z,996.63
2016-08-14T01:08:49.629Z,996.62
2016-08-14T01:09:48.900Z,996.66
2016-08-14T01:10:49.214Z,996.58
2016-08-14T01:11:49.554Z,996.62
2016-08-14T01:12:49.490Z,996.6
2016-08-14T01:13:49.186Z,996.61
2016-08-14T01:14:48.911Z,996.59
2016-08-14T01:15:49.478Z,996.6
2016-08-14T01:16:49.179Z,996.62
2016-08-14T01:17:49.433Z,996.58
2016-08-14T01:18:49.517Z,996.6
2016-08-14T01:19:48.921Z,996.64
2016-08-14T01:20:48.925Z,996.57
2016-08-14T01:21:48.925Z,996.55
2016-08-14T01:22:48.929Z,996.57
2016-08-14T01:23:48.928Z,996.54
2016-08-14T01:24:48.932Z,996.51
2016-08-14T01:25:48.932Z,996.55
2016-08-14T01:26:48.935Z,996.48
2016-08-14T01:27:48.935Z,996.48
2016-08-14T01:28:48.938Z,996.47
2016-08-14T01:29:48.941Z,996.49
2016-08-14T01:30:48.941Z,996.47
2016-08-14T01:31:48.943Z,996.48
2016-08-14T01:32:48.945Z,996.46
2016-08-14T01:33:48.947Z,996.46
2016-08-14T01:34:48.948Z,996.48
2016-08-14T01:35:48.952Z,996.46
2016-08-14T01:36:48.953Z,996.46
2016-08-14T01:37:48.954Z,996.42
2016-08-14T01:38:48.956Z,996.39
2016-08-14T01:39:48.958Z,996.45
2016-08-14T01:40:48.958Z,996.44
2016-08-14T01:41:48.960Z,996.38
2016-08-14T01:42:48.972Z,996.42
2016-08-14T01:43:48.966Z,996.43
2016-08-14T01:44:48.977Z,996.41
2016-08-14T01:45:48.967Z,996.39
2016-08-14T01:46:48.978Z,996.34
2016-08-14T01:47:48.983Z,996.37
2016-08-14T01:48:48.982Z,996.33
2016-08-14T01:49:48.982Z,996.36
2016-08-14T01:50:48.978Z,996.32
2016-08-14T01:51:48.983Z,996.33
2016-08-14T01:52:48.981Z,996.3
2016-08-14T01:53:48.983Z,996.28
2016-08-14T01:54:48.981Z,996.29
2016-08-14T01:55:48.996Z,996.3
2016-08-14T01:56:48.995Z,996.28
2016-08-14T01:57:48.996Z,996.26
2016-08-14T01:58:48.998Z,996.32
2016-08-14T01:59:48.997Z,996.27
2016-08-14T02:00:48.999Z,996.23
2016-08-14T02:01:49.000Z,996.23
2016-08-14T02:02:49.006Z,996.25
2016-08-14T02:03:49.004Z,996.2
2016-08-14T02:04:49.004Z,996.24
2016-08-14T02:05:49.002Z,996.21
2016-08-14T02:06:49.002Z,996.19
2016-08-14T02:07:49.002Z,996.19
2016-08-14T02:08:49.011Z,996.19
2016-08-14T02:09:49.005Z,996.21
2016-08-14T02:10:49.009Z,996.2
2016-08-14T02:11:49.008Z,996.15
2016-08-14T02:12:49.007Z,996.19
2016-08-14T02:13:49.013Z,996.19
2016-08-14T02:14:49.019Z,996.12
2016-08-14T02:15:49.016Z,996.14
2016-08-14T02:16:49.013Z,996.15
2016-08-14T02:17:49.018Z,996.16
2016-08-14T02:18:49.017Z,996.15
2016-08-14T02:19:49.017Z,996.15
2016-08-14T02:20:49.021Z,996.15
2016-08-14T02:21:49.023Z,996.14
2016-08-14T02:22:49.020Z,996.22
2016-08-14T02:23:49.023Z,996.15
2016-08-14T02:24:49.024Z,996.16
2016-08-14T02:25:49.026Z,996.12
2016-08-14T02:26:49.025Z,996.16
2016-08-14T02:27:49.030Z,996.17
2016-08-14T02:28:49.033Z,996.2
2016-08-14T02:29:49.033Z,996.16
2016-08-14T02:30:49.033Z,996.16
2016-08-14T02:31:49.040Z,996.11
2016-08-14T02:32:49.048Z,996.13
2016-08-14T02:33:49.039Z,996.17
2016-08-14T02:34:49.043Z,996.2
2016-08-14T02:35:49.040Z,996.2
2016-08-14T02:36:49.040Z,996.18
2016-08-14T02:37:49.047Z,996.2
2016-08-14T02:38:49.043Z,996.18
2016-08-14T02:39:49.052Z,996.23
2016-08-14T02:40:49.051Z,996.23
2016-08-14T02:41:49.052Z,996.27
2016-08-14T02:42:49.055Z,996.23
2016-08-14T02:43:49.054Z,996.27
2016-08-14T02:44:49.055Z,996.23
2016-08-14T02:45:49.060Z,996.26
2016-08-14T02:46:49.068Z,996.23
2016-08-14T02:47:49.069Z,996.23
2016-08-14T02:48:49.070Z,996.26
2016-08-14T02:49:49.076Z,996.25
2016-08-14T02:50:49.074Z,996.27
2016-08-14T02:51:49.074Z,996.28
2016-08-14T02:52:49.073Z,996.31
2016-08-14T02:53:49.074Z,996.27
2016-08-14T02:54:49.073Z,996.3
2016-08-14T02:55:49.075Z,996.27
2016-08-14T02:56:49.088Z,996.24
2016-08-14T02:57:49.080Z,996.25
2016-08-14T02:58:49.082Z,996.29
2016-08-14T02:59:49.090Z,996.3
2016-08-14T03:00:49.087Z,996.32
2016-08-14T03:01:49.085Z,996.31
2016-08-14T03:02:49.087Z,996.29
2016-08-14T03:03:49.090Z,996.3
2016-08-14T03:04:49.089Z,996.32
2016-08-14T03:05:49.096Z,996.34
2016-08-14T03:06:49.102Z,996.35
2016-08-14T03:07:49.098Z,996.34
2016-08-14T03:08:49.096Z,996.34
2016-08-14T03:09:49.099Z,996.34
2016-08-14T03:10:49.105Z,996.35
2016-08-14T03:11:49.106Z,996.36
2016-08-14T03:12:49.101Z,996.4
2016-08-14T03:13:49.105Z,996.36
2016-08-14T03:14:49.107Z,996.38
2016-08-14T03:15:49.105Z,996.38
2016-08-14T03:16:49.109Z,996.36
2016-08-14T03:17:49.110Z,996.38
2016-08-14T03:18:49.112Z,996.38
2016-08-14T03:19:49.114Z,996.41
2016-08-14T03:20:49.118Z,996.37
2016-08-14T03:21:49.117Z,996.36
2016-08-14T03:22:49.119Z,996.4
2016-08-14T03:23:49.123Z,996.4
2016-08-14T03:24:49.120Z,996.4
2016-08-14T03:25:49.123Z,996.44
2016-08-14T03:26:49.126Z,996.43
2016-08-14T03:27:49.124Z,996.47
2016-08-14T03:28:49.126Z,996.45
2016-08-14T03:29:49.128Z,996.44
2016-08-14T03:30:49.134Z,996.47
2016-08-14T03:31:49.135Z,996.43
2016-08-14T03:32:49.136Z,996.42
2016-08-14T03:33:49.151Z,996.47
2016-08-14T03:34:49.200Z,996.42
2016-08-14T03:35:49.203Z,996.44
2016-08-14T03:36:49.138Z,996.46
2016-08-14T03:37:49.144Z,996.41
2016-08-14T03:38:49.143Z,996.45
2016-08-14T03:39:49.147Z,996.43
2016-08-14T03:40:49.144Z,996.45
2016-08-14T03:41:49.146Z,996.43
2016-08-14T03:42:49.147Z,996.47
2016-08-14T03:43:49.148Z,996.44
2016-08-14T03:44:49.155Z,996.42
2016-08-14T03:45:49.152Z,996.41
2016-08-14T03:46:49.153Z,996.41
2016-08-14T03:47:49.159Z,996.4
2016-08-14T03:48:49.158Z,996.36
2016-08-14T03:49:49.165Z,996.38
2016-08-14T03:50:49.161Z,996.37
2016-08-14T03:51:49.171Z,996.36
2016-08-14T03:52:49.175Z,996.34
2016-08-14T03:53:49.166Z,996.3
2016-08-14T03:54:49.168Z,996.32
2016-08-14T03:55:49.167Z,996.33
2016-08-14T03:56:49.170Z,996.36
2016-08-14T03:57:49.173Z,996.37
2016-08-14T03:58:49.172Z,996.34
2016-08-14T03:59:49.174Z,996.35
2016-08-14T04:00:49.174Z,996.35
2016-08-14T04:01:49.176Z,996.35
2016-08-14T04:02:49.178Z,996.34
2016-08-14T04:03:49.179Z,996.37
2016-08-14T04:04:49.180Z,996.36
2016-08-14T04:05:49.182Z,996.36
2016-08-14T04:06:49.184Z,996.36
2016-08-14T04:07:49.190Z,996.37
2016-08-14T04:08:49.186Z,996.36
2016-08-14T04:09:49.188Z,996.39
2016-08-14T04:10:49.189Z,996.46
2016-08-14T04:11:49.192Z,996.47
2016-08-14T04:12:49.192Z,996.45
2016-08-14T04:13:49.194Z,996.5
2016-08-14T04:14:49.198Z,996.5
2016-08-14T04:15:49.196Z,996.51
2016-08-14T04:16:49.200Z,996.47
2016-08-14T04:17:49.199Z,996.5
2016-08-14T04:18:49.210Z,996.46
2016-08-14T04:19:49.203Z,996.49
2016-08-14T04:20:49.206Z,996.48
2016-08-14T04:21:49.209Z,996.46
2016-08-14T04:22:49.204Z,996.5
2016-08-14T04:23:49.212Z,996.51
2016-08-14T04:24:49.212Z,996.53
2016-08-14T04:25:49.211Z,996.53
2016-08-14T04:26:49.214Z,996.5
2016-08-14T04:27:49.214Z,996.51
2016-08-14T04:28:49.214Z,996.51
2016-08-14T04:29:49.216Z,996.53
2016-08-14T04:30:49.222Z,996.54
2016-08-14T04:31:49.220Z,996.55
2016-08-14T04:32:49.220Z,996.52
2016-08-14T04:33:49.222Z,996.56
2016-08-14T04:34:49.224Z,996.55
2016-08-14T04:35:49.227Z,996.58
2016-08-14T04:36:49.225Z,996.54
2016-08-14T04:37:49.225Z,996.61
2016-08-14T04:38:49.229Z,996.6
2016-08-14T04:39:49.230Z,996.63
2016-08-14T04:40:49.235Z,996.64
2016-08-14T04:41:49.232Z,996.65
2016-08-14T04:42:49.237Z,996.67
2016-08-14T04:43:49.235Z,996.71
2016-08-14T04:44:49.235Z,996.69
2016-08-14T04:45:49.238Z,996.7
2016-08-14T04:46:49.238Z,996.74
2016-08-14T04:47:49.240Z,996.74
2016-08-14T04:48:49.252Z,996.66
2016-08-14T04:49:49.243Z,996.64
2016-08-14T04:50:49.253Z,996.73
2016-08-14T04:51:49.254Z,996.77
2016-08-14T04:52:49.255Z,996.8
2016-08-14T04:53:49.257Z,996.74
2016-08-14T04:54:49.254Z,996.76
2016-08-14T04:55:49.257Z,996.8
2016-08-14T04:56:49.263Z,996.77
2016-08-14T04:57:49.262Z,996.77
2016-08-14T04:58:49.262Z,996.77
2016-08-14T04:59:49.263Z,996.77
2016-08-14T05:00:49.321Z,996.78
2016-08-14T05:01:49.269Z,996.81
2016-08-14T05:02:49.271Z,996.84
2016-08-14T05:03:49.276Z,996.83
2016-08-14T05:04:49.278Z,996.84
2016-08-14T05:05:49.282Z,996.84
2016-08-14T05:06:49.289Z,996.84
2016-08-14T05:07:49.287Z,996.81
2016-08-14T05:08:49.291Z,996.79
2016-08-14T05:09:49.295Z,996.81
2016-08-14T05:10:49.299Z,996.76
2016-08-14T05:11:49.302Z,996.83
2016-08-14T05:12:49.306Z,996.79
2016-08-14T05:13:49.308Z,996.85
2016-08-14T05:14:49.313Z,996.86
2016-08-14T05:15:49.318Z,996.86
2016-08-14T05:16:49.321Z,996.87
2016-08-14T05:17:49.325Z,996.84
2016-08-14T05:18:49.328Z,996.78
2016-08-14T05:19:49.333Z,996.81
2016-08-14T05:20:49.337Z,996.8
2016-08-14T05:21:49.343Z,996.75
2016-08-14T05:22:49.346Z,996.76
2016-08-14T05:23:49.354Z,996.75
2016-08-14T05:24:49.353Z,996.77
2016-08-14T05:25:49.358Z,996.78
2016-08-14T05:26:49.364Z,996.73
2016-08-14T05:27:49.368Z,996.76
2016-08-14T05:28:49.376Z,996.74
2016-08-14T05:29:49.376Z,996.77
2016-08-14T05:30:49.381Z,996.76
2016-08-14T05:31:49.391Z,996.74
2016-08-14T05:32:49.393Z,996.81
2016-08-14T05:33:49.394Z,996.7
2016-08-14T05:34:49.399Z,996.74
2016-08-14T05:35:49.437Z,996.7
2016-08-14T05:36:49.408Z,996.74
2016-08-14T05:37:49.412Z,996.75
2016-08-14T05:38:49.422Z,996.77
2016-08-14T05:39:49.421Z,996.76
2016-08-14T05:40:49.426Z,996.73
2016-08-14T05:41:49.433Z,996.75
2016-08-14T05:42:49.439Z,996.76
2016-08-14T05:43:49.439Z,996.74
2016-08-14T05:44:49.449Z,996.74
2016-08-14T05:45:49.448Z,996.73
2016-08-14T05:46:49.459Z,996.71
2016-08-14T05:47:49.460Z,996.9
2016-08-14T05:48:49.460Z,996.81
2016-08-14T05:49:49.465Z,996.8
2016-08-14T05:50:49.469Z,996.77
2016-08-14T05:51:49.478Z,996.81
2016-08-14T05:52:49.481Z,996.79
2016-08-14T05:53:49.485Z,996.77
2016-08-14T05:54:49.483Z,996.76
2016-08-14T05:55:49.489Z,996.78
2016-08-14T05:56:49.491Z,996.8
2016-08-14T05:57:49.495Z,996.78
2016-08-14T05:58:49.498Z,996.78
2016-08-14T05:59:49.502Z,996.79
2016-08-14T06:00:49.505Z,996.79
2016-08-14T06:01:49.508Z,996.78
2016-08-14T06:02:49.512Z,996.74
2016-08-14T06:03:49.517Z,996.74
2016-08-14T06:04:49.520Z,996.7
2016-08-14T06:05:49.525Z,996.74
2016-08-14T06:06:49.528Z,996.72
2016-08-14T06:07:49.532Z,996.73
2016-08-14T06:08:49.536Z,996.75
2016-08-14T06:09:49.539Z,996.78
2016-08-14T06:10:49.550Z,996.77
2016-08-14T06:11:49.551Z,996.78
2016-08-14T06:12:49.553Z,996.79
2016-08-14T06:13:49.557Z,996.8
2016-08-14T06:14:49.556Z,996.74
2016-08-14T06:15:49.558Z,996.8
2016-08-14T06:16:49.567Z,996.81
2016-08-14T06:17:49.570Z,996.78
2016-08-14T06:18:49.570Z,996.82
2016-08-14T06:19:49.572Z,996.81
2016-08-14T06:20:49.577Z,996.8
2016-08-14T06:21:49.585Z,996.83
2016-08-14T06:22:49.584Z,996.84
2016-08-14T06:23:49.586Z,996.85
2016-08-14T06:24:49.589Z,996.79
2016-08-14T06:25:49.594Z,996.78
2016-08-14T06:26:49.596Z,996.8
2016-08-14T06:27:49.600Z,996.86
2016-08-14T06:28:49.613Z,996.82
2016-08-14T06:29:49.608Z,996.79
2016-08-14T06:30:49.612Z,996.82
2016-08-14T06:31:49.617Z,996.77
2016-08-14T06:32:49.621Z,996.76
2016-08-14T06:33:49.627Z,996.72
2016-08-14T06:34:49.636Z,996.73
2016-08-14T06:35:49.635Z,996.74
2016-08-14T06:36:49.643Z,996.76
2016-08-14T06:37:49.647Z,996.69
2016-08-14T06:38:49.650Z,996.72
2016-08-14T06:39:49.657Z,996.74
2016-08-14T06:40:49.663Z,996.75
2016-08-14T06:41:49.668Z,996.75
2016-08-14T06:42:49.673Z,996.71
2016-08-14T06:43:49.680Z,996.73
2016-08-14T06:44:49.686Z,996.72
2016-08-14T06:45:49.692Z,996.72
2016-08-14T06:46:49.701Z,996.77
2016-08-14T06:47:49.707Z,996.74
2016-08-14T06:48:49.714Z,996.69
2016-08-14T06:49:49.721Z,996.7
2016-08-14T06:50:49.727Z,996.69
2016-08-14T06:51:49.733Z,996.69
2016-08-14T06:52:49.741Z,996.72
2016-08-14T06:53:49.751Z,996.71
2016-08-14T06:54:49.755Z,996.72
2016-08-14T06:55:49.763Z,996.71
2016-08-14T06:56:49.776Z,996.66
2016-08-14T06:57:49.778Z,996.67
2016-08-14T06:58:49.793Z,996.65
2016-08-14T06:59:49.792Z,996.62
2016-08-14T07:00:49.806Z,996.65
2016-08-14T07:01:49.806Z,996.66
2016-08-14T07:02:49.816Z,996.67
2016-08-14T07:03:49.821Z,996.65
2016-08-14T07:04:49.838Z,996.69
2016-08-14T07:05:49.844Z,996.69
2016-08-14T07:06:49.847Z,996.7
2016-08-14T07:07:49.854Z,996.67
2016-08-14T07:08:49.860Z,996.69
2016-08-14T07:09:49.869Z,996.73
2016-08-14T07:10:49.875Z,996.72
2016-08-14T07:11:49.883Z,996.73
2016-08-14T07:12:49.903Z,996.75
2016-08-14T07:13:49.905Z,996.7
2016-08-14T07:14:49.912Z,996.73
2016-08-14T07:15:49.917Z,996.73
2016-08-14T07:16:49.930Z,996.67
2016-08-14T07:17:49.933Z,996.66
2016-08-14T07:18:49.942Z,996.7
2016-08-14T07:19:49.949Z,996.73
2016-08-14T07:20:49.958Z,996.7
2016-08-14T07:21:49.965Z,996.69
2016-08-14T07:22:49.976Z,996.65
2016-08-14T07:23:50.002Z,996.66
2016-08-14T07:24:49.991Z,996.66
2016-08-14T07:25:50.004Z,996.65
2016-08-14T07:26:50.013Z,996.63
2016-08-14T07:27:50.017Z,996.63
2016-08-14T07:28:50.026Z,996.64
2016-08-14T07:29:50.033Z,996.63
2016-08-14T07:30:50.042Z,996.65
2016-08-14T07:31:50.051Z,996.64
2016-08-14T07:32:50.060Z,996.6
2016-08-14T07:33:50.080Z,996.64
2016-08-14T07:34:50.078Z,996.6
2016-08-14T07:35:50.085Z,996.58
2016-08-14T07:36:50.103Z,996.58
2016-08-14T07:37:50.106Z,996.59
2016-08-14T07:38:50.109Z,996.61
2016-08-14T07:39:50.118Z,996.62
2016-08-14T07:40:50.127Z,996.63
2016-08-14T07:41:50.134Z,996.61
2016-08-14T07:42:50.143Z,996.59
2016-08-14T07:43:50.150Z,996.59
2016-08-14T07:44:50.861Z,996.64
2016-08-14T07:45:50.181Z,996.6
2016-08-14T07:46:50.716Z,996.61
2016-08-14T07:47:50.563Z,996.57
2016-08-14T07:48:50.615Z,996.57
2016-08-14T07:49:50.655Z,996.59
2016-08-14T07:50:50.516Z,996.59
2016-08-14T07:51:50.381Z,996.65
2016-08-14T07:52:50.217Z,996.61
2016-08-14T07:53:50.225Z,996.63
2016-08-14T07:54:50.230Z,996.62
2016-08-14T07:55:50.238Z,996.64
2016-08-14T07:56:50.245Z,996.6
2016-08-14T07:57:50.254Z,996.62
2016-08-14T07:58:50.261Z,996.65
2016-08-14T07:59:50.267Z,996.66
2016-08-14T08:00:50.278Z,996.64
2016-08-14T08:01:50.282Z,996.65
2016-08-14T08:02:50.290Z,996.63
2016-08-14T08:03:50.298Z,996.59
2016-08-14T08:04:50.308Z,996.6
2016-08-14T08:05:50.315Z,996.61
2016-08-14T08:06:50.332Z,996.62
2016-08-14T08:07:50.334Z,996.65
2016-08-14T08:08:50.341Z,996.66
2016-08-14T08:09:50.349Z,996.61
2016-08-14T08:10:50.364Z,996.63
2016-08-14T08:11:50.365Z,996.59
2016-08-14T08:12:50.374Z,996.6
2016-08-14T08:13:50.395Z,996.59
2016-08-14T08:14:50.394Z,996.59
2016-08-14T08:15:50.412Z,996.6
2016-08-14T08:16:50.411Z,996.62
2016-08-14T08:17:50.417Z,996.59
2016-08-14T08:18:50.441Z,996.6
2016-08-14T08:19:50.436Z,996.58
2016-08-14T08:20:50.447Z,996.6
2016-08-14T08:21:50.455Z,996.58
2016-08-14T08:22:50.465Z,996.55
2016-08-14T08:23:50.472Z,996.56
2016-08-14T08:24:50.483Z,996.54
2016-08-14T08:25:50.492Z,996.57
2016-08-14T08:26:50.502Z,996.58
2016-08-14T08:27:50.511Z,996.57
2016-08-14T08:28:50.530Z,996.59
2016-08-14T08:29:50.533Z,996.55
2016-08-14T08:30:50.539Z,996.59
2016-08-14T08:31:50.548Z,996.54
2016-08-14T08:32:50.564Z,996.52
2016-08-14T08:33:50.566Z,996.53
2016-08-14T08:34:50.575Z,996.55
2016-08-14T08:35:50.593Z,996.57
2016-08-14T08:36:50.596Z,996.55
2016-08-14T08:37:50.602Z,996.55
2016-08-14T08:38:50.620Z,996.54
2016-08-14T08:39:50.623Z,996.6
2016-08-14T08:40:50.631Z,996.57
2016-08-14T08:41:50.639Z,996.54
2016-08-14T08:42:50.655Z,996.54
2016-08-14T08:43:50.658Z,996.54
2016-08-14T08:44:50.666Z,996.54
2016-08-14T08:45:50.701Z,996.54
2016-08-14T08:46:50.685Z,996.56
2016-08-14T08:47:50.694Z,996.54
2016-08-14T08:48:50.702Z,996.57
2016-08-14T08:49:50.711Z,996.56
2016-08-14T08:50:50.724Z,996.53
2016-08-14T08:51:50.729Z,996.56
2016-08-14T08:52:50.738Z,996.52
2016-08-14T08:53:50.748Z,996.54
2016-08-14T08:54:50.755Z,996.55
2016-08-14T08:55:50.765Z,996.51
2016-08-14T08:56:50.774Z,996.51
2016-08-14T08:57:50.780Z,996.49
2016-08-14T08:58:50.789Z,996.49
2016-08-14T08:59:50.800Z,996.5
2016-08-14T09:00:50.805Z,996.5
2016-08-14T09:01:50.821Z,996.5
2016-08-14T09:02:50.821Z,996.48
2016-08-14T09:03:50.830Z,996.5
2016-08-14T09:04:50.837Z,996.5
2016-08-14T09:05:50.841Z,996.53
2016-08-14T09:06:50.849Z,996.51
2016-08-14T09:07:50.855Z,996.49
2016-08-14T09:08:50.862Z,996.52
2016-08-14T09:09:50.870Z,996.51
2016-08-14T09:10:50.877Z,996.47
2016-08-14T09:11:50.881Z,996.48
2016-08-14T09:12:50.887Z,996.45
2016-08-14T09:13:50.895Z,996.45
2016-08-14T09:14:50.902Z,996.44
2016-08-14T09:15:50.912Z,996.44
2016-08-14T09:16:50.915Z,996.46
2016-08-14T09:17:50.922Z,996.41
2016-08-14T09:18:50.928Z,996.4
2016-08-14T09:19:50.934Z,996.39
2016-08-14T09:20:50.939Z,996.38
2016-08-14T09:21:50.946Z,996.36
2016-08-14T09:22:50.952Z,996.34
2016-08-14T09:23:50.958Z,996.37
2016-08-14T09:24:50.969Z,996.34
2016-08-14T09:25:50.969Z,996.31
2016-08-14T09:26:50.976Z,996.32
2016-08-14T09:27:50.988Z,996.28
2016-08-14T09:28:50.989Z,996.3
2016-08-14T09:29:50.994Z,996.29
2016-08-14T09:30:50.999Z,996.27
2016-08-14T09:31:51.006Z,996.34
2016-08-14T09:32:51.013Z,996.3
2016-08-14T09:33:51.017Z,996.32
2016-08-14T09:34:51.022Z,996.31
2016-08-14T09:35:51.029Z,996.28
2016-08-14T09:36:51.042Z,996.26
2016-08-14T09:37:51.045Z,996.3
2016-08-14T09:38:51.044Z,996.25
2016-08-14T09:39:51.052Z,996.27
2016-08-14T09:40:51.058Z,996.23
2016-08-14T09:41:51.062Z,996.25
2016-08-14T09:42:51.067Z,996.27
2016-08-14T09:43:51.076Z,996.28
2016-08-14T09:44:51.079Z,996.32
2016-08-14T09:45:51.084Z,996.3
2016-08-14T09:46:51.092Z,996.32
2016-08-14T09:47:51.106Z,996.31
2016-08-14T09:48:51.111Z,996.3
2016-08-14T09:49:51.109Z,996.32
2016-08-14T09:50:51.428Z,996.3
2016-08-14T09:51:51.697Z,996.31
2016-08-14T09:52:51.416Z,996.31
2016-08-14T09:53:51.386Z,996.28
2016-08-14T09:54:51.138Z,996.36
2016-08-14T09:55:51.141Z,996.34
2016-08-14T09:56:51.167Z,996.25
2016-08-14T09:57:51.153Z,996.25
2016-08-14T09:58:51.157Z,996.25
2016-08-14T09:59:51.170Z,996.2
2016-08-14T10:00:51.177Z,996.22
2016-08-14T10:01:51.175Z,996.21
2016-08-14T10:02:51.181Z,996.18
2016-08-14T10:03:51.186Z,996.21
2016-08-14T10:04:51.195Z,996.18
2016-08-14T10:05:51.198Z,996.13
2016-08-14T10:06:51.204Z,996.19
2016-08-14T10:07:51.209Z,996.17
2016-08-14T10:08:51.215Z,996.12
2016-08-14T10:09:51.221Z,996.18
2016-08-14T10:10:51.228Z,996.11
2016-08-14T10:11:51.242Z,996.11
2016-08-14T10:12:51.240Z,996.07
2016-08-14T10:13:51.244Z,996.12
2016-08-14T10:14:51.256Z,996.11
2016-08-14T10:15:51.276Z,996.12
2016-08-14T10:16:51.263Z,996.09
2016-08-14T10:17:51.267Z,996.09
2016-08-14T10:18:51.281Z,996.08
2016-08-14T10:19:51.279Z,996.08
2016-08-14T10:20:51.285Z,996.08
2016-08-14T10:21:51.292Z,996.1
2016-08-14T10:22:51.296Z,996.1
2016-08-14T10:23:51.303Z,996.05
2016-08-14T10:24:51.308Z,996.06
2016-08-14T10:25:51.314Z,996.07
2016-08-14T10:26:51.322Z,996.09
2016-08-14T10:27:51.326Z,996.05
2016-08-14T10:28:51.332Z,996.05
2016-08-14T10:29:51.342Z,996.03
2016-08-14T10:30:51.343Z,996
2016-08-14T10:31:51.355Z,995.99
2016-08-14T10:32:51.363Z,995.97
2016-08-14T10:33:51.363Z,995.93
2016-08-14T10:34:51.373Z,995.89
2016-08-14T10:35:51.436Z,995.9
2016-08-14T10:36:51.378Z,995.94
2016-08-14T10:37:51.384Z,995.91
2016-08-14T10:38:51.394Z,995.91
2016-08-14T10:39:51.396Z,995.91
2016-08-14T10:40:51.402Z,995.91
2016-08-14T10:41:51.409Z,995.92
2016-08-14T10:42:51.414Z,995.89
2016-08-14T10:43:51.419Z,995.9
2016-08-14T10:44:51.426Z,995.87
2016-08-14T10:45:51.434Z,995.88
2016-08-14T10:46:51.440Z,995.84
2016-08-14T10:47:51.443Z,995.82
2016-08-14T10:48:51.451Z,995.82
2016-08-14T10:49:51.457Z,995.77
2016-08-14T10:50:51.462Z,995.83
2016-08-14T10:51:51.468Z,995.84
2016-08-14T10:52:51.475Z,995.86
2016-08-14T10:53:51.498Z,995.82
2016-08-14T10:54:51.493Z,995.79
2016-08-14T10:55:51.496Z,995.81
2016-08-14T10:56:51.499Z,995.76
2016-08-14T10:57:51.505Z,995.78
2016-08-14T10:58:51.510Z,995.79
2016-08-14T10:59:51.524Z,995.76
2016-08-14T11:00:51.521Z,995.78
2016-08-14T11:01:51.532Z,995.76
2016-08-14T11:02:51.534Z,995.83
2016-08-14T11:03:51.541Z,995.76
2016-08-14T11:04:51.549Z,995.72
2016-08-14T11:05:51.553Z,995.73
2016-08-14T11:06:51.559Z,995.7
2016-08-14T11:07:51.566Z,995.72
2016-08-14T11:08:51.575Z,995.69
2016-08-14T11:09:51.576Z,995.71
2016-08-14T11:10:51.583Z,995.72
2016-08-14T11:11:51.590Z,995.73
2016-08-14T11:12:51.594Z,995.7
2016-08-14T11:13:51.600Z,995.69
2016-08-14T11:14:51.608Z,995.68
2016-08-14T11:15:51.612Z,995.66
2016-08-14T11:16:51.620Z,995.69
2016-08-14T11:17:51.634Z,995.68
2016-08-14T11:18:51.632Z,995.71
2016-08-14T11:19:51.637Z,995.71
2016-08-14T11:20:51.643Z,995.66
2016-08-14T11:21:51.651Z,995.71
2016-08-14T11:22:51.655Z,995.72
2016-08-14T11:23:51.661Z,995.68
2016-08-14T11:24:51.684Z,995.68
2016-08-14T11:25:51.674Z,995.61
2016-08-14T11:26:51.684Z,995.61
2016-08-14T11:27:51.686Z,995.67
2016-08-14T11:28:51.697Z,995.64
2016-08-14T11:29:51.701Z,995.63
2016-08-14T11:30:51.710Z,995.64
2016-08-14T11:31:51.710Z,995.69
2016-08-14T11:32:51.716Z,995.61
2016-08-14T11:33:51.722Z,995.58
2016-08-14T11:34:51.727Z,995.57
2016-08-14T11:35:51.734Z,995.63
2016-08-14T11:36:51.740Z,995.64
2016-08-14T11:37:51.762Z,995.6
2016-08-14T11:38:51.751Z,995.56
2016-08-14T11:39:51.764Z,995.55
2016-08-14T11:40:51.837Z,995.51
2016-08-14T11:41:51.770Z,995.53
2016-08-14T11:42:51.775Z,995.57
2016-08-14T11:43:51.784Z,995.55
2016-08-14T11:44:51.789Z,995.55
2016-08-14T11:45:51.798Z,995.56
2016-08-14T11:46:51.800Z,995.47
2016-08-14T11:47:51.807Z,995.47
2016-08-14T11:48:51.818Z,995.49
2016-08-14T11:49:51.818Z,995.5
2016-08-14T11:50:51.824Z,995.49
2016-08-14T11:51:51.833Z,995.45
2016-08-14T11:52:51.836Z,995.45
2016-08-14T11:53:51.843Z,995.47
2016-08-14T11:54:51.848Z,995.39
2016-08-14T11:55:51.854Z,995.38
2016-08-14T11:56:51.863Z,995.38
2016-08-14T11:57:51.867Z,995.36
2016-08-14T11:58:51.872Z,995.37
2016-08-14T11:59:51.878Z,995.31
2016-08-14T12:00:51.889Z,995.32
2016-08-14T12:01:51.891Z,995.32
2016-08-14T12:02:51.897Z,995.33
2016-08-14T12:03:51.902Z,995.35
2016-08-14T12:04:51.910Z,995.37
2016-08-14T12:05:51.927Z,995.37
2016-08-14T12:06:51.926Z,995.33
2016-08-14T12:07:51.929Z,995.34
2016-08-14T12:08:51.939Z,995.4
2016-08-14T12:09:51.942Z,995.34
2016-08-14T12:10:51.947Z,995.38
2016-08-14T12:11:51.953Z,995.33
2016-08-14T12:12:51.960Z,995.36
2016-08-14T12:13:51.966Z,995.35
2016-08-14T12:14:51.973Z,995.27
2016-08-14T12:15:51.990Z,995.29
2016-08-14T12:16:51.989Z,995.35
2016-08-14T12:17:51.993Z,995.37
2016-08-14T12:18:51.996Z,995.36
2016-08-14T12:19:52.005Z,995.3
2016-08-14T12:20:52.011Z,995.3
2016-08-14T12:21:52.021Z,995.33
2016-08-14T12:22:52.021Z,995.35
2016-08-14T12:23:52.027Z,995.44
2016-08-14T12:24:52.034Z,995.46
2016-08-14T12:25:52.041Z,995.46
2016-08-14T12:26:52.058Z,995.43
2016-08-14T12:27:52.058Z,995.34
2016-08-14T12:28:52.060Z,995.29
2016-08-14T12:29:52.066Z,995.25
2016-08-14T12:30:52.078Z,995.24
2016-08-14T12:31:52.083Z,995.24